Tiempo atmosférico en la estación meteorológica de Madrid Aeropuerto, Madrid (609 m.)



Fecha
DESCASC
Temp. máxima en grados centígrados (hora)
DESCASC
Temp. mínima en grados centígrados (hora)
DESCASC
Temp. media en grados centígrados
DESCASC
Racha de viento máxima en m/sg (hora)
DESCASC
Velocidad máxima media en intervalos de 10 minutos(hora)
DESCASC
Precipitaciones diarias en mm
DESCASC
Precipitaciones de 00:00 a 06:00 en mm
DESCASC
Precipitaciones de 06:00 a 12:00 en mm
DESCASC
Precipitaciones de 12:00 a 18:00 en mm
DESCASC
Precipitaciones de 18:00 a 24:00 en mm
DESCASC
18-04-2019 -- (--) -- (--) -- -- (--) -- (--) -- 11.4 8.8 1.7 --
17-04-2019 25 (17:00) 9.8 (07:30) 17.4 12.78 (18:40) 9.44 (18:30) 0.2 0 0 0 0.2
16-04-2019 22.9 (18:00) 4.6 (00:00) 13.7 11.67 (16:10) 4.44 (17:00) 0 0 0 0 0
15-04-2019 25.9 (15:30) 10.1 (00:00) 18 16.11 (17:50) 10.56 (17:50) 0 0 0 0 0
14-04-2019 24.9 (17:50) 5.7 (00:00) 15.3 11.39 (16:50) 4.44 (21:10) 0 0 0 0 0
13-04-2019 22.8 (18:30) 1.2 (00:00) 12 7.22 (18:40) 5 (22:50) 0 0 0 0 0
12-04-2019 20.4 (17:50) 1.5 (00:00) 10.9 7.22 (16:20) 4.72 (22:30) 0 0 0 0 0
11-04-2019 17.7 (16:30) 3.2 (00:00) 10.5 11.67 (11:50) 8.33 (11:50) 0 0 0 0 0
10-04-2019 16.1 (17:20) 6 (00:00) 11.1 12.5 (10:40) 7.78 (10:40) 0 0 0 0 0
09-04-2019 15 (17:50) 6.1 (00:00) 10.5 13.89 (15:20) 9.72 (15:20) 0.8 0 0 0.7 0.1
08-04-2019 18 (17:50) 7.6 (00:00) 12.8 15 (23:00) 10.56 (23:00) 1.8 0.2 1.6 0 0
07-04-2019 14.7 (15:50) 5 (00:00) 9.8 12.78 (17:50) 8.06 (17:40) 1.9 0 0 0 1.9
06-04-2019 12.3 (16:50) 3.6 (00:00) 8 16.39 (16:00) 10 (15:30) 1.2 0 0 0.6 0.6
05-04-2019 12.4 (00:00) 3.9 (00:00) 8.1 20 (18:30) 12.78 (18:30) 6.6 0.6 0.5 2.5 3
04-04-2019 15.5 (16:40) 0.8 (00:00) 8.2 13.33 (14:40) 6.39 (02:00) 0 0 0 0 0
03-04-2019 16 (18:00) 3.9 (00:00) 10 12.78 (14:30) 9.17 (21:20) 0 0 0 0 0
02-04-2019 19.4 (15:00) 7 (00:00) 13.2 10.83 (15:10) 7.78 (17:30) 0 0 0 0 0
01-04-2019 17.7 (16:20) 8.9 (00:00) 13.3 5 (15:40) 3.61 (22:30) 0 0 0 0 0
31-03-2019 13 (15:30) 6.4 (00:00) 9.7 4.72 (03:20) 3.06 (04:00) 0.6 0 0 0.5 0.1
30-03-2019 19.9 (17:50) 1.6 (00:00) 10.7 8.89 (00:20) 6.11 (00:20) 0 0 0 0 0
29-03-2019 19.2 (15:10) 1.4 (00:00) 10.3 12.78 (13:40) 7.5 (18:40) 0 0 0 0 0
28-03-2019 20.4 (17:30) 1.5 (00:00) 10.9 7.22 (15:00) 3.33 (12:40) 0 0 0 0 0
27-03-2019 20.4 (18:50) 0.8 (00:00) 10.6 5.83 (01:10) 3.33 (08:00) 0 0 0 0 0
26-03-2019 23 (16:10) 5.9 (00:00) 14.5 11.67 (18:10) 8.33 (18:20) 0 0 0 0 0
25-03-2019 22.6 (15:40) 5.8 (00:00) 14.2 11.67 (21:40) 6.11 (21:20) 0 0 0 0 0
24-03-2019 22.8 (16:50) 4 (00:00) 13.4 10.28 (13:40) 4.72 (13:40) 0 0 0 0 0
23-03-2019 21.3 (14:10) 2.7 (00:00) 12 8.33 (18:40) 6.39 (18:40) 0 0 0 0 0
22-03-2019 20 (17:10) -0.3 (00:00) 9.8 13.33 (13:30) 5.56 (21:20) 0 0 0 0 0
21-03-2019 16.6 (17:10) 0.4 (00:00) 8.5 6.67 (14:20) 3.33 (16:10) 0 0 0 0 0

Gráficas

Temp. máximas Temp. mínimas Temp. medias Precipitaciones Rachas de viento máximas Velocidades máximas media en intervalos de 10 minutos

Datos horarios

Fecha y hora oficial Temperatura (ºC) Velocidad del viento (km/h) Dirección del viento Racha (km/h) Dirección de racha Precipitación (mm) Presión (hPa) Tendencia (hPa) Humedad (%)
2019-04-19 23:00:00 9.9 0 Calma 8 Sudeste 0 952.1 2.9 95
2019-04-19 22:00:00 10 10 Sudeste 18 Sur 0 951.3 2.3 95
2019-04-19 21:00:00 10.1 4 Este 8 Sudeste 0.1 950.4 1.3 95
2019-04-19 20:00:00 10.2 4 Sur 8 Sur 0.7 949.2 0.1 94
2019-04-19 19:00:00 10 3 Oeste 11 Norte 1.7 949 -0.8 94
2019-04-19 18:00:00 10.5 2 Norte 11 Norte 1.2 949.1 -0.7 92
2019-04-19 17:00:00 10.4 4 Nordeste 11 Nordeste 1.4 949.1 -0.6 93
2019-04-19 16:00:00 10.2 5 Nordeste 17 Nordeste 2.1 949.8 0.2 91
2019-04-19 15:00:00 10.4 9 Norte 17 Nordeste 1.3 949.8 0.6 89
2019-04-19 14:00:00 10.4 7 Norte 18 Norte 1.2 949.7 0.9 89
2019-04-19 13:00:00 10.9 9 Nordeste 21 Nordeste 0.3 949.6 1.3 86
2019-04-19 12:00:00 11 10 Nordeste 21 Nordeste 0 949.2 1.3 80
2019-04-19 11:00:00 10.8 8 Nordeste 17 Nordeste 0 948.8 1.4 84
2019-04-19 10:00:00 10 6 Nordeste 13 Nordeste 0 948.3 1.6 88
2019-04-19 09:00:00 9 7 Nordeste 15 Nordeste 0 947.9 1.6 91
2019-04-19 08:00:00 8.9 6 Nordeste 13 Nordeste 0 947.4 1.1 91
2019-04-19 07:00:00 9 5 Nordeste 13 Nordeste 0 946.7 0.8 92
2019-04-19 06:00:00 9.2 4 Nordeste 8 Nordeste 0 946.3 0.4 93
2019-04-19 05:00:00 9.4 5 Nordeste 8 Norte 0 946.3 0.2 94
2019-04-19 04:00:00 9.4 6 Norte 9 Nordeste 0 945.9 0.1 94
2019-04-19 03:00:00 9.5 3 Este 13 Nordeste 0.7 945.9 0 94
2019-04-19 02:00:00 9.9 5 Nordeste 11 Nordeste 0.5 946.1 0.2 94
2019-04-19 01:00:00 9.7 4 Norte 9 Norte 1.8 945.8 -- 94
2019-04-19 00:00:00 9.9 0 Calma 8 Norte 0.3 945.9 1.2 93
2019-04-18 23:00:00 9.7 4 Norte -- -- -- 945.9 1.6 92
2019-04-18 22:00:00 -- -- -- -- -- -- -- -- --
2019-04-18 21:00:00 10.5 5 Norte 15 Nordeste 2.2 944.7 0.4 91
2019-04-18 20:00:00 11.5 10 Norte 15 Norte 0 944.3 -0.5 83
2019-04-18 19:00:00 11.5 9 Norte 15 Norte 0 943.9 -0.6 83
2019-04-18 18:00:00 11.8 9 Norte 18 Norte 0.1 944.3 -0.9 81
2019-04-18 17:00:00 11.8 4 Nordeste 17 Norte 0.2 944.8 -0.9 85
2019-04-18 16:00:00 11.7 8 Nordeste 13 Nordeste 0 944.5 -1.7 81
2019-04-18 15:00:00 11.6 8 Nordeste 15 Norte 0 945.2 -1.7 83
2019-04-18 14:00:00 11.3 9 Este 18 Este 0 945.7 -1.1 86
2019-04-18 13:00:00 10.4 7 Este 18 Este 1.4 946.2 0.2 92
2019-04-18 12:00:00 9.9 9 Este 18 Este 2.4 946.9 0.6 94
2019-04-18 11:00:00 10.4 10 Este 21 Este 1.2 946.8 0.9 94
2019-04-18 10:00:00 10.3 6 Este 18 Nordeste 0.5 946 0.7 95
2019-04-18 09:00:00 9.9 4 Este 8 Este 1.7 946.3 0.7 95
2019-04-18 08:00:00 9.7 5 Norte 15 Norte 0.9 945.9 0.2 95
2019-04-18 07:00:00 10 11 Norte 15 Norte 2.1 945.3 -1 94
2019-04-18 06:00:00 10.3 5 Norte 9 Nordeste 2.4 945.6 -0.7 94
2019-04-18 05:00:00 10.6 6 Norte 18 Oeste 3.5 945.7 0.1 92
2019-04-18 04:00:00 11.5 12 Sudoeste 24 Sudoeste 3.3 946.3 0.8 88
2019-04-18 03:00:00 12.8 23 Sur 32 Sur 1 946.3 0.7 88
2019-04-18 02:00:00 13.4 16 Sudeste 26 Sudeste 0.5 945.6 0.4 84
2019-04-18 01:00:00 14.1 14 Sudeste 24 Sudeste 0.7 945.5 0.9 85
2019-04-18 00:00:00 15 13 Sudeste 18 Sudeste 0 945.6 2.6 81
2019-04-17 23:00:00 15.3 2 Noroeste 28 Oeste 0.2 945.2 2.9 79
2019-04-17 22:00:00 17.4 17 Sudoeste 41 Oeste 0 944.6 3.3 60
2019-04-17 21:00:00 20.2 17 Sudoeste 32 Sudoeste 0 943 2.4 40
2019-04-17 20:00:00 22.3 24 Sur 42 Sudeste 0 942.3 1.4 35
2019-04-17 19:00:00 23.2 27 Sudeste 46 Sudeste 0 941.3 -0.9 33
2019-04-17 18:00:00 24 26 Sudeste 41 Sudeste 0 940.6 -2.7 32
2019-04-17 17:00:00 24.9 27 Sudeste 42 Sudeste 0 940.9 -3.6 30
2019-04-17 16:00:00 24 20 Sudeste 35 Sudeste 0 942.2 -3.5 31
2019-04-17 15:00:00 23.2 15 Sudeste 30 Sudeste 0 943.3 -3.2 32
2019-04-17 14:00:00 21 14 Sudeste 26 Sudeste 0 944.5 -1.9 39
2019-04-17 13:00:00 19.6 10 Sudeste 18 Sur 0 945.7 -1 44
2019-04-17 12:00:00 17.2 5 Este 18 Sudeste 0 946.5 -0.8 51
2019-04-17 11:00:00 14.3 6 Este 17 Nordeste 0 946.4 -0.5 59
2019-04-17 10:00:00 13.5 8 Este 18 Sudeste 0 946.7 -0.1 63
2019-04-17 09:00:00 11.4 2 Sudeste 15 Sudeste 0 947.3 0.5 71
2019-04-17 08:00:00 10.1 7 Sudeste 11 Este 0 946.9 -0.1 74
2019-04-17 07:00:00 10.4 4 Este 13 Este 0 946.8 -0.2 72
2019-04-17 06:00:00 11.2 8 Sudeste 11 Sudeste 0 946.8 -0.7 68
2019-04-17 05:00:00 12.1 10 Sudeste 18 Sudeste 0 947 -1 65
2019-04-17 04:00:00 12.6 12 Sudeste 24 Sudeste 0 947 -0.8 64
2019-04-17 03:00:00 13.3 9 Este 37 Sur 0 947.5 0.2 63
2019-04-17 02:00:00 14.1 20 Sudeste 33 Sudeste 0 948 1.1 60
2019-04-17 01:00:00 15.3 28 Sudeste 45 Sudeste 0 947.8 1 58
2019-04-17 00:00:00 15.6 13 Sudeste 24 Sudeste 0 947.3 0.6 47
2019-04-16 23:00:00 14.8 4 Este 9 Este 0 946.9 0.4 39
2019-04-16 22:00:00 16.7 4 Este 11 Este 0 946.8 0.1 35
2019-04-16 21:00:00 19.4 5 Sudeste 15 Sudeste 0 946.7 -0.7 29
2019-04-16 20:00:00 21.5 13 Sudeste 26 Sur 0 946.5 -1.5 26
2019-04-16 19:00:00 22.5 16 Sur 24 Sudeste 0 946.7 -2.3 26
2019-04-16 18:00:00 22.8 14 Sur 39 Sudoeste 0 947.4 -2.2 24
2019-04-16 17:00:00 22.2 16 Sudeste 42 Sudoeste 0 948 -2.3 26
2019-04-16 16:00:00 22 13 Sur 24 Sur 0 949 -1.6 28
2019-04-16 15:00:00 20.5 9 Este 22 Sur 0 949.6 -1.7 32
2019-04-16 14:00:00 19.6 6 Norte 22 Sudeste 0 950.3 -1 35
2019-04-16 13:00:00 18.1 6 Sur 28 Sur 0 950.6 -0.7 39
2019-04-16 12:00:00 17.2 10 Sudeste 17 Sudeste 0 951.3 0.1 40
2019-04-16 11:00:00 14.7 4 Nordeste 13 Norte 0 951.3 0.4 52
2019-04-16 10:00:00 10.8 5 Norte 11 Nordeste 0 951.3 0.7 65
2019-04-16 09:00:00 7.6 4 Norte 9 Norte 0 951.2 0.7 75
2019-04-16 08:00:00 4.8 6 Norte 9 Norte 0 950.9 0.4 86
2019-04-16 07:00:00 5.4 6 Norte 8 Norte 0 950.6 0.7 83
2019-04-16 06:00:00 7.1 3 Este 11 Este 0 950.5 1.1 78
2019-04-16 05:00:00 7.7 6 Este 11 Este 0 950.5 1.1 75
2019-04-16 04:00:00 8.5 -- -- -- -- 0 949.9 0.5 71
2019-04-16 03:00:00 9.2 6 Este 11 Este 0 949.4 0.8 70
2019-04-16 02:00:00 10.9 3 Noroeste 9 Noroeste 0 949.4 1.7 65
2019-04-16 01:00:00 12.4 3 Oeste 15 Sudoeste 0 949.4 2.3 56
2019-04-16 00:00:00 13.6 6 Oeste 22 Oeste 0 948.6 3.1 51
2019-04-15 23:00:00 14.7 15 Oeste 30 Oeste 0 947.7 3.4 48
2019-04-15 22:00:00 15.3 22 Oeste 41 Oeste 0 947.1 3.9 49
2019-04-15 21:00:00 17.2 28 Oeste 45 Oeste 0 945.5 2.9 45
2019-04-15 20:00:00 21 35 Sudoeste 46 Sudoeste 0 944.3 1.8 38
2019-04-15 19:00:00 23.8 30 Sudoeste 50 Sudoeste 0 943.2 0.2 30
2019-04-15 18:00:00 25.1 35 Sudoeste 58 Sudoeste 0 942.6 -0.8 23
2019-04-15 17:00:00 24.7 31 Sudoeste 55 Sudoeste 0 942.5 -1.7 27
2019-04-15 16:00:00 25.3 30 Sudoeste 52 Sur 0 943 -2.4 30
2019-04-15 15:00:00 25.3 29 Sur 45 Sur 0 943.4 -2.9 34
2019-04-15 14:00:00 22.8 13 Sur 39 Sur 0 944.2 -2 45
2019-04-15 13:00:00 20.7 9 Sudeste 17 Sur 0 945.4 -0.8 52
2019-04-15 12:00:00 17.4 2 Nordeste 9 Noroeste 0 946.3 -0.6 62
2019-04-15 11:00:00 15.7 8 Noroeste 11 Noroeste 0 946.2 -0.7 66
2019-04-15 10:00:00 14 4 Noroeste 8 Noroeste 0 946.2 -0.3 71
2019-04-15 09:00:00 11.7 4 Norte 8 Norte 0 946.9 0.1 80
2019-04-15 08:00:00 10.3 3 Norte 8 Norte 0 946.9 -0.1 83
2019-04-15 07:00:00 10.7 5 Norte 8 Noroeste 0 946.5 -1 81
2019-04-15 06:00:00 11.4 6 Norte 9 Norte 0 946.8 -0.8 80
2019-04-15 05:00:00 11.2 6 Noroeste 11 Noroeste 0 947 -0.9 81
2019-04-15 04:00:00 12 7 Norte 9 Norte 0 947.5 -0.5 79
2019-04-15 03:00:00 13.4 3 Norte 13 Este 0 947.6 -0.4 73
2019-04-15 02:00:00 14.8 6 Sudeste 9 Sudeste 0 947.9 0 67
2019-04-15 01:00:00 16.1 9 Sudeste 13 Sudeste 0 948 0.3 61
2019-04-15 00:00:00 17 9 Sudeste 11 Sudeste 0 948 0.8 58
2019-04-14 23:00:00 19.1 8 Sur 21 Sudoeste 0 947.9 1.2 52
2019-04-14 22:00:00 20.5 14 Sur 26 Sudoeste 0 947.7 1 49
2019-04-14 21:00:00 21.7 14 Sur 24 Sur 0 947.2 0.4 41
2019-04-14 20:00:00 23.8 11 Sur 22 Sudoeste 0 946.7 -0.8 35
2019-04-14 19:00:00 24.4 8 Sudeste 22 Sudoeste 0 946.7 -1.4 33
2019-04-14 18:00:00 24.8 13 Sur 30 Sur 0 946.8 -1.9 32
2019-04-14 17:00:00 24.3 12 Sudoeste 41 Sudoeste 0 947.5 -1.6 32
2019-04-14 16:00:00 23.9 13 Sur 33 Sur 0 948.1 -1.8 35
2019-04-14 15:00:00 23 7 Sur 28 Sur 0 948.7 -1.5 37
2019-04-14 14:00:00 22.1 6 Sur 28 Sudoeste 0 949.1 -1.3 41
2019-04-14 13:00:00 20.2 5 Sudoeste 13 Sudoeste 0 949.9 -0.5 43
2019-04-14 12:00:00 17.6 3 Oeste 11 Sudoeste 0 950.2 -0.2 44
2019-04-14 11:00:00 14.8 3 Sur 15 Sudoeste 0 950.4 0.1 51
2019-04-14 10:00:00 11.4 4 Sudeste 8 Sudeste 0 950.4 0.8 52
2019-04-14 09:00:00 8.1 2 Norte 9 Norte 0 950.4 0.5 63
2019-04-14 08:00:00 5.7 0 Calma 5 Norte 0 950.3 0.4 67
2019-04-14 07:00:00 6.3 0 Calma 9 Norte 0 949.6 -0.6 62
2019-04-14 06:00:00 7 0 Calma 8 Sudeste 0 949.9 -0.1 58
2019-04-14 05:00:00 7.8 0 Calma 9 Norte 0 949.9 -0.5 55
2019-04-14 04:00:00 8.5 6 Norte 9 Nordeste 0 950.2 -0.2 53
2019-04-14 03:00:00 9.7 6 Sudeste 11 Sudeste 0 950 -0.2 47
2019-04-14 02:00:00 10.8 5 Norte 9 Norte 0 950.4 0.2 43
2019-04-14 01:00:00 12.7 4 Noroeste 18 Sudoeste 0 950.4 0.4 38
2019-04-14 00:00:00 16.7 14 Sudoeste 22 Oeste 0 950.2 0.8 30
2019-04-13 23:00:00 17.9 15 Sudoeste 24 Oeste 0 950.2 1.2 24
2019-04-13 22:00:00 18.3 12 Sudoeste 26 Sudoeste 0 950 1.2 21
2019-04-13 21:00:00 19.4 15 Sur 22 Sudoeste 0 949.4 0.4 14
2019-04-13 20:00:00 21.5 13 Sur 18 Sur 0 949 -0.5 12
2019-04-13 19:00:00 22.3 14 Sur 26 Sur 0 948.8 -1.3 10
2019-04-13 18:00:00 22.4 10 Sudoeste 21 Sur 0 949 -1.5 10
2019-04-13 17:00:00 22 10 Oeste 22 Sur 0 949.5 -1.4 11
2019-04-13 16:00:00 21.3 6 Sur 18 Sudeste 0 950.1 -1.4 11
2019-04-13 15:00:00 20.3 9 Sudeste 21 Sudeste 0 950.5 -1.4 13
2019-04-13 14:00:00 19.2 7 Sur 15 Sudeste 0 950.9 -1.2 16
2019-04-13 13:00:00 18 7 Sur 15 Sudoeste 0 951.5 -0.5 24
2019-04-13 12:00:00 15.3 4 Sur 15 Sur 0 951.9 -0.1 33
2019-04-13 11:00:00 11.9 5 Sur 13 Sudoeste 0 952.1 0.6 41
2019-04-13 10:00:00 8.5 5 Sur 11 Sudoeste 0 952 1.1 55
2019-04-13 09:00:00 4.7 6 Norte 9 Norte 0 952 1.4 69
2019-04-13 08:00:00 1.2 8 Norte 9 Norte 0 951.5 1 80
2019-04-13 07:00:00 1.9 5 Norte -- -- 0 950.9 0.4 76
2019-04-13 06:00:00 2.8 8 Norte 11 Norte 0 950.6 -0.2 73
2019-04-13 05:00:00 4 5 Nordeste 8 Nordeste 0 950.5 -0.3 68
2019-04-13 04:00:00 4.7 3 Sur 9 Este 0 950.5 -0.2 64
2019-04-13 03:00:00 6.1 0 Calma 5 Norte 0 950.8 0.4 57
2019-04-13 02:00:00 6.9 0 Calma 8 Nordeste 0 950.8 0.8 56
2019-04-13 01:00:00 8.6 4 Norte 13 Noroeste 0 950.7 1.3 48
2019-04-13 00:00:00 10.7 5 Norte 18 Noroeste 0 950.4 1.7 42
2019-04-12 23:00:00 12.4 13 Noroeste 24 Norte 0 950 1.6 38
2019-04-12 22:00:00 14 15 Noroeste 24 Norte 0 949.4 1.1 35
2019-04-12 21:00:00 15.6 15 Norte 24 Norte 0 948.7 0.4 29
2019-04-12 20:00:00 18.4 16 Norte 24 Norte 0 948.4 -0.1 23
2019-04-12 19:00:00 19.9 10 Norte 17 Norte 0 948.3 -1 24
2019-04-12 18:00:00 19.9 8 Oeste 21 Norte 0 948.3 -1.7 25
2019-04-12 17:00:00 19.3 6 Sudeste 26 Sudoeste 0 948.5 -1.8 26
2019-04-12 16:00:00 18.9 6 Norte 18 Oeste 0 949.3 -1.5 28
2019-04-12 15:00:00 17.6 6 Oeste 22 Sur 0 950 -1.6 31
2019-04-12 14:00:00 16 10 Sudoeste 24 Sudoeste 0 950.3 -1.4 35
2019-04-12 13:00:00 14.4 4 Sur 21 Oeste 0 950.8 -0.9 39
2019-04-12 12:00:00 12.9 8 Norte 13 Norte 0 951.6 -0.2 45
2019-04-12 11:00:00 10.3 5 Oeste 11 Oeste 0 951.7 0.1 54
2019-04-12 10:00:00 7.7 6 Oeste 17 Oeste 0 951.7 0.5 66
2019-04-12 09:00:00 4.6 6 Norte 9 Norte 0 951.8 0.8 78
2019-04-12 08:00:00 1.9 2 Norte 9 Nordeste 0 951.6 0.4 84
2019-04-12 07:00:00 3 3 Norte 9 Este 0 951.2 0.1 82
2019-04-12 06:00:00 4.3 2 Este 8 Nordeste 0 951 -0.4 75
2019-04-12 05:00:00 5.6 5 Nordeste 13 Nordeste 0 951.2 -0.5 70
2019-04-12 04:00:00 5.8 2 Este 9 Este 0 951.1 -0.2 68
2019-04-12 03:00:00 5.1 5 Norte 9 Norte 0 951.4 0.1 70
2019-04-12 02:00:00 6 4 Sudeste 8 Sudeste 0 951.7 0.6 65
2019-04-12 01:00:00 7.6 3 Este 15 Norte 0 951.3 0.6 60
2019-04-12 00:00:00 8.6 13 Noroeste 21 Noroeste 0 951.3 1.2 56
2019-04-11 23:00:00 9.7 12 Norte 18 Norte 0 951.1 1.6 49
2019-04-11 22:00:00 11.2 15 Norte 24 Norte 0 950.7 1.2 41
2019-04-11 21:00:00 12.8 15 Norte 32 Norte 0 950.1 0.8 38
2019-04-11 20:00:00 15 22 Norte 35 Norte 0 949.5 0.1 34
2019-04-11 19:00:00 16.1 23 Norte 37 Norte 0 949.5 -0.2 29
2019-04-11 18:00:00 16.4 22 Norte 39 Norte 0 949.3 -0.6 28
2019-04-11 17:00:00 17.4 18 Norte 37 Norte 0 949.4 -0.8 28
2019-04-11 16:00:00 16.9 19 Norte 41 Norte 0 949.7 -1.2 28
2019-04-11 15:00:00 16.5 27 Norte 42 Norte 0 949.9 -1.1 31
2019-04-11 14:00:00 15.4 25 Norte 39 Norte 0 950.2 -0.9 35
2019-04-11 13:00:00 14.6 22 Norte 42 Norte 0 950.9 -0.3 37
2019-04-11 12:00:00 13.4 26 Norte 42 Norte 0 951 0 40
2019-04-11 11:00:00 12 21 Norte 35 Norte 0 951.1 0.4 46
2019-04-11 10:00:00 9 7 Noroeste 15 Norte 0 951.2 0.9 61
2019-04-11 09:00:00 5.8 4 Sudeste 11 Este 0 951 0.9 72
2019-04-11 08:00:00 3.6 8 Nordeste 15 Norte 0 950.7 0.8 80
2019-04-11 07:00:00 3.9 5 Norte 15 Norte 0 950.3 0.6 77
2019-04-11 06:00:00 4.5 5 Este 22 Norte 0 950.1 0.4 75
2019-04-11 05:00:00 5 9 Norte 15 Noroeste 0 949.9 0.1 75
2019-04-11 04:00:00 5.2 9 Noroeste 11 Noroeste 0 949.7 0.1 75
2019-04-11 03:00:00 5.7 7 Noroeste 13 Norte 0 949.7 0.4 73
2019-04-11 02:00:00 6.6 2 Norte 15 Norte 0 949.8 1.2 70
2019-04-11 01:00:00 8.2 11 Norte 13 Norte 0 949.6 1.6 67
2019-04-11 00:00:00 8.8 3 Nordeste 15 Norte 0 949.3 2.5 62
2019-04-10 23:00:00 9.4 10 Noroeste 18 Norte 0 948.6 2.4 58
2019-04-10 22:00:00 10.5 13 Noroeste 21 Noroeste 0 948 2.4 52
2019-04-10 21:00:00 11.7 15 Noroeste 24 Norte 0 946.8 1.2 47
2019-04-10 20:00:00 12.3 15 Norte 30 Norte 0 946.2 0.8 47
2019-04-10 19:00:00 13.6 16 Norte 28 Norte 0 945.6 -0.2 39
2019-04-10 18:00:00 15.1 14 Norte 33 Norte 0 945.6 -0.3 40
2019-04-10 17:00:00 15.4 12 Noroeste 24 Noroeste 0 945.4 -0.7 36
2019-04-10 16:00:00 14.3 12 Norte 22 Norte 0 945.8 -0.5 41
2019-04-10 15:00:00 12.8 17 Noroeste 28 Oeste 0 945.9 -0.4 46
2019-04-10 14:00:00 12.7 9 Oeste 21 Norte 0 946.1 -0.3 48
2019-04-10 13:00:00 13.4 6 Nordeste 28 Norte 0 946.3 0.3 46
2019-04-10 12:00:00 12.9 14 Oeste 35 Oeste 0 946.3 0.1 43
2019-04-10 11:00:00 11.6 24 Oeste 45 Oeste 0 946.4 0.5 46
2019-04-10 10:00:00 11 17 Oeste 26 Sudoeste 0 946 0.2 51
2019-04-10 09:00:00 9.2 10 Oeste 18 Sudoeste 0 946.2 0.5 60
2019-04-10 08:00:00 6.7 9 Oeste 17 Sudoeste 0 945.9 0.2 68
2019-04-10 07:00:00 7.2 0 Calma 11 Oeste 0 945.8 0 69
2019-04-10 06:00:00 7.3 10 Oeste 28 Oeste 0 945.7 -0.2 67
2019-04-10 05:00:00 8.5 17 Oeste 33 Oeste 0 945.7 -0.2 62
2019-04-10 04:00:00 8.3 16 Oeste 28 Sudoeste 0 945.8 -0.3 66
2019-04-10 03:00:00 8.9 18 Oeste 30 Sudoeste 0 945.9 -0.2 67
2019-04-10 02:00:00 8.4 17 Oeste 26 Sudoeste 0 945.9 0 70
2019-04-10 01:00:00 8.4 11 Oeste 33 Oeste 0 946.1 0.5 72
2019-04-10 00:00:00 8.6 24 Sudoeste 45 Sudoeste 0.1 946.1 1.1 74
2019-04-09 23:00:00 10.4 26 Oeste 39 Oeste 0 945.9 1.9 54
2019-04-09 22:00:00 10.4 14 Oeste 22 Oeste 0 945.6 2 52
2019-04-09 21:00:00 11.4 18 Noroeste 45 Oeste 0 945 1.3 51
2019-04-09 20:00:00 13 22 Oeste 37 Oeste 0 944 0.2 37
2019-04-09 19:00:00 13.9 23 Noroeste 46 Oeste 0 943.6 -1 36
2019-04-09 18:00:00 14.8 31 Oeste 42 Noroeste 0 943.7 -1.1 37
2019-04-09 17:00:00 12.9 30 Noroeste 45 Oeste 0 943.8 -1.1 49
2019-04-09 16:00:00 10.9 16 Oeste 50 Oeste 0.7 944.6 -0.7 67
2019-04-09 15:00:00 10.8 29 Sudoeste 45 Sudoeste 0 944.8 -1.1 72
2019-04-09 14:00:00 11 32 Sudoeste 45 Sudoeste 0 944.9 -1.1 63
2019-04-09 13:00:00 10.9 26 Sudoeste 45 Sudoeste 0 945.3 -0.7 67
2019-04-09 12:00:00 9.5 24 Sudoeste 48 Sudoeste 0 945.9 -0.1 76
2019-04-09 11:00:00 9.7 23 Sudoeste 41 Sudoeste 0 946 0.1 69
2019-04-09 10:00:00 9.1 21 Sudoeste 39 Oeste 0 946 0.1 72
2019-04-09 09:00:00 8.2 22 Sudoeste 32 Sudoeste 0 946 0.4 77
2019-04-09 08:00:00 6.7 20 Sudoeste 32 Sudoeste 0 945.9 0.1 81
2019-04-09 07:00:00 6.8 14 Sudoeste 30 Sudoeste 0 945.9 0.1 82
2019-04-09 06:00:00 7.2 18 Sudoeste 28 Sudoeste 0 945.6 -0.3 81
2019-04-09 05:00:00 7.9 21 Sudoeste 32 Sudoeste 0 945.8 -0.2 79
2019-04-09 04:00:00 8.3 20 Sudoeste 30 Sudoeste 0 945.8 0 77
2019-04-09 03:00:00 6.5 3 Sudeste 9 Sur 0 945.9 0.2 80
2019-04-09 02:00:00 7.9 0 Calma 18 Sudoeste 0 946 0.1 77
2019-04-09 01:00:00 9 12 Sur 13 Sur 0 945.8 1 76
2019-04-09 00:00:00 8.5 8 Norte 50 Oeste 0 945.7 1.5 79
2019-04-08 23:00:00 10.1 38 Oeste 54 Oeste 0 945.9 2.4 62
2019-04-08 22:00:00 12 22 Oeste 32 Oeste 0 944.8 1.8 56
2019-04-08 21:00:00 11.8 10 Noroeste 35 Noroeste 0 944.2 0.9 60
2019-04-08 20:00:00 15.2 27 Oeste 39 Sudoeste 0 943.5 -0.2 43
2019-04-08 19:00:00 17 24 Sudoeste 41 Sur 0 943 -1.2 36
2019-04-08 18:00:00 17 15 Sudoeste 42 Sudoeste 0 943.3 -1.5 38
2019-04-08 17:00:00 17.4 26 Sudoeste 42 Sudoeste 0 943.7 -1.5 36
2019-04-08 16:00:00 16.1 22 Sudoeste 39 Sudoeste 0 944.2 -1 42
2019-04-08 15:00:00 15.9 25 Sudoeste 48 Sudoeste 0 944.8 -0.8 48
2019-04-08 14:00:00 13.9 23 Sudoeste 42 Sudoeste 0 945.2 -0.3 66
2019-04-08 13:00:00 12.7 17 Sudoeste 41 Sudoeste 0 945.2 -0.4 77
2019-04-08 12:00:00 11.6 19 Sudoeste 42 Sudoeste 0 945.6 0.1 85
2019-04-08 11:00:00 10.8 18 Sudoeste 35 Sudoeste 0 945.5 0.3 88
2019-04-08 10:00:00 10.3 15 Sudoeste 30 Sudoeste 0 945.6 0.6 90
2019-04-08 09:00:00 8.6 6 Sudoeste 13 Sudoeste 0.4 945.5 0.5 96
2019-04-08 08:00:00 8 0 Calma 5 Norte 0.8 945.2 0.1 95
2019-04-08 07:00:00 7.8 5 Norte 9 Norte 0.4 945 -0.2 95
2019-04-08 06:00:00 7.7 6 Norte 11 Noroeste 0 945 -0.4 95
2019-04-08 05:00:00 7.6 6 Norte 13 Norte 0 945.1 -0.9 94
2019-04-08 04:00:00 8.3 5 Sudoeste 8 Sudoeste 0 945.2 -1.1 93
2019-04-08 03:00:00 8.2 4 Sudeste 9 Sur 0.2 945.4 -1.1 94
2019-04-08 02:00:00 8.2 4 Sudeste 13 Sur 0 946 -0.6 94
2019-04-08 01:00:00 8.4 11 Sur 15 Sur 0 946.3 -0.2 91
2019-04-08 00:00:00 8.4 4 Sudeste 9 Este 0.3 946.5 0.2 92
2019-04-07 23:00:00 8.4 5 Este 8 Este 0.6 946.6 0.6 90
2019-04-07 22:00:00 9.1 6 Oeste 17 Oeste 0.3 946.5 1.2 82
2019-04-07 21:00:00 9.3 8 Sudoeste 18 Oeste 0.2 946.3 1.5 77
2019-04-07 20:00:00 9.9 12 Oeste 21 Sudoeste 0.5 946 1.9 74
2019-04-07 19:00:00 10.8 11 Oeste 41 Sudoeste 0 945.3 1.3 65
2019-04-07 18:00:00 12.4 24 Sudoeste 46 Sudoeste 0 944.8 0.6 46
2019-04-07 17:00:00 14.3 22 Sudoeste 35 Sudoeste 0 944.1 0 36
2019-04-07 16:00:00 14.3 16 Sudoeste 37 Sudoeste 0 944 0.1 35
2019-04-07 15:00:00 14.1 15 Sudoeste 33 Sudoeste 0 944.2 0.5 35
2019-04-07 14:00:00 12.7 19 Sudoeste 35 Sudoeste 0 944.1 0.9 37
2019-04-07 13:00:00 11.7 22 Oeste 33 Noroeste 0 943.9 1.3 38
2019-04-07 12:00:00 11.5 21 Oeste 37 Sudoeste 0 943.7 1.7 43
2019-04-07 11:00:00 9.7 22 Oeste 35 Sudoeste 0 943.2 2 51
2019-04-07 10:00:00 7.9 21 Sudoeste 39 Sur 0 942.6 2.5 61
2019-04-07 09:00:00 6.2 14 Sudoeste 22 Sur 0 942 2.3 68
2019-04-07 08:00:00 5 14 Sudoeste 22 Sudoeste 0 941.2 1.9 74
2019-04-07 07:00:00 5.2 19 Sudoeste 28 Sudoeste 0 940.1 0.9 78
2019-04-07 06:00:00 5.5 14 Sudoeste 22 Sudoeste 0 939.7 0.7 79
2019-04-07 05:00:00 5.4 15 Sudoeste 28 Sudoeste 0 939.3 0.2 82
2019-04-07 04:00:00 6 21 Sudoeste 28 Sudoeste 0 939.2 0.3 79
2019-04-07 03:00:00 6 19 Sur 26 Sur 0 939 0.4 79
2019-04-07 02:00:00 6.2 20 Sudoeste 32 Sudoeste 0 939.1 0.9 75
2019-04-07 01:00:00 6.4 20 Sudoeste 33 Sudoeste 0 938.9 1.2 70
2019-04-07 00:00:00 6.5 19 Sudoeste 26 Sudoeste 0 938.6 1.8 71
2019-04-06 23:00:00 7.4 20 Sudoeste 35 Sur 0 938.2 2.2 62
2019-04-06 22:00:00 7.9 21 Sur 35 Sudoeste 0 937.7 2.5 69
2019-04-06 21:00:00 8.3 21 Sudoeste 39 Sudoeste 0.1 936.8 2.2 68
2019-04-06 20:00:00 8.7 13 Sudoeste 33 Oeste 0 936 1.8 69
2019-04-06 19:00:00 9.5 17 Noroeste 50 Oeste 0.5 935.2 0.7 64
2019-04-06 18:00:00 8.8 21 Oeste 46 Sudoeste 0.1 934.6 -0.4 68
2019-04-06 17:00:00 11.9 28 Sudoeste 59 Sudoeste 0 934.2 -1.1 48
2019-04-06 16:00:00 11.3 33 Sudoeste 59 Sudoeste 0 934.5 -1.4 52
2019-04-06 15:00:00 12 35 Sudoeste 46 Sudoeste 0 935 -1.2 50
2019-04-06 14:00:00 10.2 32 Sudoeste 52 Sudoeste 0 935.3 -1 66
2019-04-06 13:00:00 7.6 21 Sur 52 Sudoeste 0.5 935.9 -0.2 80
2019-04-06 12:00:00 7.4 24 Sudoeste 46 Sudoeste 0 936.2 0.2 74
2019-04-06 11:00:00 6.6 20 Sudoeste 35 Sudoeste 0 936.3 0.5 77
2019-04-06 10:00:00 5.6 19 Sur 41 Oeste 0 936.1 0.9 78
2019-04-06 09:00:00 4.7 22 Sudoeste 30 Sudoeste 0 936 1.1 81
2019-04-06 08:00:00 3.9 20 Sudoeste 32 Sudoeste 0 935.8 0.9 82
2019-04-06 07:00:00 3.8 22 Sudoeste 33 Sudoeste 0 935.2 0.4 84
2019-04-06 06:00:00 4 22 Sudoeste 30 Sudoeste 0 934.9 0.1 85
2019-04-06 05:00:00 4.4 21 Sudoeste 30 Sudoeste 0 934.9 0 84
2019-04-06 04:00:00 5.1 22 Sudoeste 30 Sudoeste 0 934.8 -0.1 84
2019-04-06 03:00:00 5.3 21 Sudoeste 32 Sudoeste 0 934.8 0.3 84
2019-04-06 02:00:00 5.5 23 Sudoeste 37 Oeste 0 934.9 0.4 81
2019-04-06 01:00:00 5.7 23 Sudoeste 39 Sudoeste 0 934.9 1 80
2019-04-06 00:00:00 6 28 Sudoeste 37 Sudoeste 0 934.5 1.4 76
2019-04-05 23:00:00 5.8 11 Sudoeste 22 Sudoeste 0 934.5 1.9 74
2019-04-05 22:00:00 6.6 13 Sudoeste 26 Oeste 0 933.9 1.9 69
2019-04-05 21:00:00 6 18 Sudoeste 28 Sudoeste 0 933.1 2.1 74
2019-04-05 20:00:00 6.1 14 Sudoeste 32 Oeste 0 932.6 1.4 80
2019-04-05 19:00:00 4.8 30 Noroeste 72 Oeste 3 932 0.5 86
2019-04-05 18:00:00 10.1 14 Oeste 48 Sudoeste 0 931 -1.3 63
2019-04-05 17:00:00 8.4 15 Sur 33 Sur 0 931.2 -0.7 70
2019-04-05 16:00:00 8.8 13 Sudoeste 39 Sudoeste 0 931.5 -1 73
2019-04-05 15:00:00 6.7 25 Sudoeste 45 Sudoeste 2.3 932.3 -0.8 86
2019-04-05 14:00:00 8.3 27 Sudeste 45 Sur 0.2 931.9 -1.1 80
2019-04-05 13:00:00 8.8 21 Sur 42 Sur 0 932.5 -0.2 80
2019-04-05 12:00:00 7.1 19 Sur 30 Sur 0 933.1 0.3 86
2019-04-05 11:00:00 6.8 19 Sur 42 Sur 0.3 933 0 85
2019-04-05 10:00:00 7 20 Sur 28 Sur 0.2 932.7 -0.2 85
2019-04-05 09:00:00 6.6 15 Sur 21 Sudeste 0 932.8 -0.2 86
2019-04-05 08:00:00 6.3 14 Sur 22 Sur 0 933 -0.2 86
2019-04-05 07:00:00 6.5 14 Sur 26 Sur 0 932.9 -0.6 86
2019-04-05 06:00:00 6.6 14 Sur 46 Sur 0 933 -0.9 82
2019-04-05 05:00:00 6.8 19 Sudoeste 35 Sudoeste 0 933.2 -0.2 80
2019-04-05 04:00:00 7.1 25 Sudoeste 41 Sudoeste 0.6 933.5 0.6 77
2019-04-05 03:00:00 8.3 22 Sudoeste 48 Oeste 0 933.9 1 63
2019-04-05 02:00:00 11.3 32 Sudoeste 52 Sudoeste 0 933.4 0 33
2019-04-05 01:00:00 12.1 16 Sudoeste 42 Sudoeste 0 932.9 -0.4 28
2019-04-05 00:00:00 12.4 18 Sudoeste 26 Sudoeste 0 932.9 -0.4 30
2019-04-04 23:00:00 12.8 14 Sudoeste 26 Sudoeste 0 933.4 0 27
2019-04-04 22:00:00 13.1 15 Sudoeste 33 Sudoeste 0 933.3 -0.4 26
2019-04-04 21:00:00 13 16 Oeste 37 Sudoeste 0 933.3 -1 26
2019-04-04 20:00:00 13.9 19 Sudoeste 41 Sudoeste 0 933.4 -1.4 21
2019-04-04 19:00:00 14.6 22 Sudoeste 41 Sudoeste 0 933.7 -1.8 21
2019-04-04 18:00:00 14.7 19 Sudoeste 46 Sudoeste 0 934.3 -2.2 17
2019-04-04 17:00:00 14.6 18 Sur 39 Sur 0 934.8 -2.5 19
2019-04-04 16:00:00 14.4 19 Sudoeste 39 Sudoeste 0 935.5 -2.4 19
2019-04-04 15:00:00 13.5 15 Sur 48 Sudoeste 0 936.5 -2.2 20
2019-04-04 14:00:00 12.3 13 Sur 24 Sur 0 937.3 -1.5 26
2019-04-04 13:00:00 10.6 11 Sur 33 Sur 0 937.9 -0.7 30
2019-04-04 12:00:00 9.7 12 Sur 21 Sur 0 938.7 0.3 34
2019-04-04 11:00:00 8.4 8 Sur 15 Sur 0 938.8 1.1 37
2019-04-04 10:00:00 6.6 11 Sudeste 15 Sudeste 0 938.6 1 42
2019-04-04 09:00:00 2.3 0 Calma 11 Este 0 938.4 1.1 56
2019-04-04 08:00:00 1 5 Nordeste 15 Noroeste 0 937.7 0.6 57
2019-04-04 07:00:00 1.7 4 Nordeste 17 Noroeste 0 937.6 0.3 54
2019-04-04 06:00:00 3.1 13 Noroeste 18 Norte 0 937.3 -0.2 50
2019-04-04 05:00:00 3.3 4 Norte 22 Norte 0 937.1 -0.8 50
2019-04-04 04:00:00 5 17 Noroeste 26 Norte 0 937.3 -0.6 45
2019-04-04 03:00:00 5.7 19 Norte 33 Noroeste 0 937.5 -0.3 42
2019-04-04 02:00:00 6.8 23 Noroeste 33 Norte 0 937.9 0.2 39
2019-04-04 01:00:00 7.1 10 Norte 21 Norte 0 937.9 0.5 41
2019-04-04 00:00:00 7.7 6 Nordeste 28 Norte 0 937.8 1.5 39
2019-04-03 23:00:00 9.4 19 Noroeste 30 Norte 0 937.7 1.3 34
2019-04-03 22:00:00 10.6 21 Noroeste 45 Noroeste 0 937.4 0.9 28
2019-04-03 21:00:00 11.9 30 Noroeste 39 Noroeste 0 936.3 -0.1 25
2019-04-03 20:00:00 13.1 26 Noroeste 41 Noroeste 0 936.4 -0.4 25
2019-04-03 19:00:00 14.4 28 Noroeste 42 Noroeste 0 936.5 -0.9 26
2019-04-03 18:00:00 15.6 25 Oeste 42 Oeste 0 936.4 -1.4 25
2019-04-03 17:00:00 15.6 26 Oeste 46 Noroeste 0 936.8 -1.4 26
2019-04-03 16:00:00 15.1 26 Oeste 42 Oeste 0 937.4 -1.2 31
2019-04-03 15:00:00 15.2 25 Oeste 46 Oeste 0 937.8 -1.5 34
2019-04-03 14:00:00 14.9 30 Oeste 45 Noroeste 0 938.2 -1.7 36
2019-04-03 13:00:00 14.7 23 Oeste 33 Noroeste 0 938.6 -1.6 39
2019-04-03 12:00:00 14.3 19 Oeste 28 Oeste 0 939.3 -1.5 44
2019-04-03 11:00:00 13.5 19 Oeste 28 Oeste 0 939.9 -1.1 45
2019-04-03 10:00:00 11.6 5 Noroeste 13 Noroeste 0 940.2 -1.1 56
2019-04-03 09:00:00 6.1 5 Sudeste 13 Sur 0 940.8 -1 83
2019-04-03 08:00:00 4.2 4 Este 5 Este 0 941 -1.3 84
2019-04-03 07:00:00 4.6 0 Calma 5 Norte 0 941.3 -1.6 80
2019-04-03 06:00:00 7 5 Norte 9 Norte 0 941.8 -1.8 68
2019-04-03 05:00:00 10.1 5 Norte 21 Oeste 0 942.3 -1.9 49
2019-04-03 04:00:00 12 16 Oeste 26 Oeste 0 942.9 -1.5 43
2019-04-03 03:00:00 12.3 17 Oeste 24 Oeste 0 943.6 -1.3 46
2019-04-03 02:00:00 11.3 6 Sudeste 11 Sudeste 0 944.2 -1 72
2019-04-03 01:00:00 12.6 9 Sudoeste 21 Sudoeste 0 944.4 -0.7 66
2019-04-03 00:00:00 13.4 17 Sudoeste 24 Sudoeste 0 944.9 0.1 62
2019-04-02 23:00:00 12 11 Sudeste 24 Sur 0 945.2 0.4 70
2019-04-02 22:00:00 13.3 11 Sur 37 Sur 0 945.1 0.4 63
2019-04-02 21:00:00 14.5 17 Sur 33 Sur 0 944.8 -0.4 63
2019-04-02 20:00:00 16.6 20 Sur 30 Sudoeste 0 944.8 -0.8 47
2019-04-02 19:00:00 17.6 17 Sur 24 Sudoeste 0 944.7 -1.7 38
2019-04-02 18:00:00 17 18 Sudoeste 39 Oeste 0 945.2 -1.3 41
2019-04-02 17:00:00 18.7 7 Sur 32 Sudoeste 0 945.6 -1.2 40
2019-04-02 16:00:00 16.1 12 Noroeste 39 Norte 0 946.4 -1.5 46
2019-04-02 15:00:00 18.8 21 Noroeste 35 Norte 0 946.5 -1.9 40
2019-04-02 14:00:00 18.1 7 Sur 18 Sudoeste 0 946.8 -1.6 49
2019-04-02 13:00:00 15.9 6 Sudeste 13 Sur 0 947.9 -0.1 55
2019-04-02 12:00:00 14.1 0 Calma 9 Este 0 948.4 0.5 63
2019-04-02 11:00:00 11.7 5 Sur 21 Sudoeste 0 948.4 0.8 74
2019-04-02 10:00:00 10 0 Calma 2 Norte 0 948 1 84
2019-04-02 09:00:00 8 3 Norte 8 Norte 0 947.9 0.7 90
2019-04-02 08:00:00 7.1 0 Calma 9 Este 0 947.6 0 89
2019-04-02 07:00:00 8.4 6 Este -- -- 0 947 -0.7 87
2019-04-02 06:00:00 9.3 6 Sudeste 11 Sudeste 0 947.2 -0.3 83
2019-04-02 05:00:00 10 9 Sudeste 13 Sudeste 0 947.6 -0.2 82
2019-04-02 04:00:00 10.3 7 Este 11 Sudeste 0 947.7 0.1 78
2019-04-02 03:00:00 10.7 6 Este 9 Este 0 947.5 0.1 76
2019-04-02 02:00:00 11.5 6 Sudeste 11 Sudeste 0 947.8 0.4 72
2019-04-02 01:00:00 11.3 6 Este 13 Este 0 947.6 1 69
2019-04-02 00:00:00 11.7 5 Sudeste 11 Sudeste 0 947.4 1.5 67
2019-04-01 23:00:00 12.6 6 Este 18 Sudeste 0 947.4 2.1 63
2019-04-01 22:00:00 13.2 5 Sudeste 11 Sudeste 0 946.6 1.5 58
2019-04-01 21:00:00 14.4 7 Sudeste 15 Sur 0 945.9 0.8 53
2019-04-01 20:00:00 16.3 10 Sur 17 Sudoeste 0 945.3 0 47
2019-04-01 19:00:00 17 10 Sur 18 Sudoeste 0 945.1 -0.5 44
2019-04-01 18:00:00 16.5 9 Sur 18 Sudeste 0 945.1 -1.1 48
2019-04-01 17:00:00 17 10 Sur 18 Sur 0 945.3 -1.5 47
2019-04-01 16:00:00 17 9 Sur 18 Sur 0 945.6 -1.6 51
2019-04-01 15:00:00 15.1 9 Sur 15 Sur 0 946.2 -1.2 58
2019-04-01 14:00:00 14.9 5 Sur 13 Oeste 0 946.8 -0.2 59
2019-04-01 13:00:00 13.5 2 Noroeste 13 Norte 0 947.2 0.7 68
2019-04-01 12:00:00 12 3 Nordeste 11 Norte 0 947.4 1 73
2019-04-01 11:00:00 11.4 7 Sudeste 13 Sudeste 0 947 1.1 76
2019-04-01 10:00:00 10.1 6 Norte 11 Norte 0 946.5 0.8 84
2019-04-01 09:00:00 9.2 0 Calma 8 Este 0 946.4 0.6 87
2019-04-01 08:00:00 8.9 5 Norte 9 Norte 0 945.9 0.2 86
2019-04-01 07:00:00 9 4 Noroeste 11 Norte 0 945.7 -0.2 85
2019-04-01 06:00:00 8.9 8 Norte 13 Noroeste 0 945.8 -0.4 86
2019-04-01 05:00:00 9 9 Norte 13 Norte 0 945.7 -0.6 86
2019-04-01 04:00:00 9.1 8 Norte 11 Norte 0 945.9 -0.5 88
2019-04-01 03:00:00 9.2 6 Norte 11 Norte 0 946.2 -0.2 87
2019-04-01 02:00:00 9.5 6 Nordeste 8 Norte 0 946.3 0.1 85
2019-04-01 01:00:00 9.6 4 Norte 11 Norte 0 946.4 0.6 86
2019-04-01 00:00:00 9.8 5 Norte 15 Norte 0 946.4 1.2 84
2019-03-31 23:00:00 10 6 Nordeste 17 Nordeste 0 946.2 1.1 84
2019-03-31 22:00:00 10 0 Calma 8 Nordeste 0 945.8 0.8 84
2019-03-31 21:00:00 10.4 6 Nordeste 13 Nordeste 0 945.2 0.2 82
2019-03-31 20:00:00 11.1 5 Norte 13 Este 0.1 945.1 -0.2 85
2019-03-31 19:00:00 12.3 7 Este 13 Este 0 945 -0.6 68
2019-03-31 18:00:00 12.3 6 Este 11 Este 0 945 -1.3 70
2019-03-31 17:00:00 12.5 6 Este 11 Este 0.1 945.3 -1.7 66
2019-03-31 16:00:00 12.4 6 Este 13 Este 0 945.6 -1.8 69
2019-03-31 15:00:00 12.2 5 Noroeste 11 Norte 0 946.3 -1.1 63
2019-03-31 14:00:00 10.6 6 Norte 9 Noroeste 0.2 947 0 72
2019-03-31 13:00:00 10.8 4 Sur 15 Sudeste 0.2 947.4 0.5 65
2019-03-31 12:00:00 12.1 7 Sudeste 11 Sudeste 0 947.4 0.3 50
2019-03-31 11:00:00 11 8 Noroeste 13 Oeste 0 947 0.3 51
2019-03-31 10:00:00 8.4 8 Norte 15 Noroeste 0 946.9 0.1 56
2019-03-31 09:00:00 7.1 6 Norte 11 Noroeste 0 947.1 0.1 59
2019-03-31 08:00:00 6.4 5 Norte 8 Norte 0 946.7 -0.8 60
2019-03-31 07:00:00 7 5 Norte 11 Norte 0 946.8 -1.3 58
2019-03-31 06:00:00 7.7 7 Norte 11 Noroeste 0 947 -1.5 54
2019-03-31 05:00:00 8.2 8 Norte 13 Noroeste 0 947.5 -1.5 53
2019-03-31 03:00:00 8.4 8 Norte 13 Norte 0 948.5 -0.4 55
2019-03-31 01:00:00 9.7 -- -- -- -- 0 949 0 62
2019-03-31 00:00:00 11.8 7 Sudeste 17 Sudeste 0 948.9 0.6 54
2019-03-30 23:00:00 12.3 8 Sudeste 15 Este 0 948.9 1 46
2019-03-30 22:00:00 11.9 2 Nordeste 18 Este 0 949 1 37
2019-03-30 21:00:00 12.4 9 Norte 9 Norte 0 948.3 0.6 37
2019-03-30 20:00:00 14.3 0 Calma 11 Sur 0 947.9 -0.1 33
2019-03-30 19:00:00 18.2 10 Sur 17 Sur 0 948 -0.7 27
2019-03-30 18:00:00 19.8 8 Sudoeste 21 Sudeste 0 947.7 -2 23
2019-03-30 17:00:00 19.3 8 Oeste 18 Sudoeste 0 948 -2.8 24
2019-03-30 16:00:00 19.5 7 Sur 18 Sudoeste 0 948.7 -3.1 25
2019-03-30 15:00:00 18.2 3 Oeste 21 Sudoeste 0 949.7 -3 27
2019-03-30 14:00:00 17.5 8 Sudoeste 21 Sur 0 950.8 -2.7 29
2019-03-30 13:00:00 16.2 9 Sudeste 18 Sur 0 951.8 -2 30
2019-03-30 12:00:00 15.1 5 Sudoeste 21 Sudeste 0 952.7 -1.4 32
2019-03-30 11:00:00 13.2 5 Nordeste 15 Norte 0 953.5 -0.6 35
2019-03-30 10:00:00 9.8 7 Noroeste 13 Oeste 0 953.8 -0.3 46
2019-03-30 09:00:00 5.8 6 Noroeste 11 Norte 0 954.1 0.1 60
2019-03-30 08:00:00 2.4 7 Norte 11 Norte 0 954.1 0 71
2019-03-30 07:00:00 2.1 7 Norte 11 Noroeste 0 954.1 -0.2 70
2019-03-30 06:00:00 3 6 Norte 11 Norte 0 954 -0.7 66
2019-03-30 05:00:00 4 6 Noroeste 9 Norte 0 954.1 -0.6 62
2019-03-30 04:00:00 5.4 5 Este 11 Sudeste 0 954.3 -0.5 52
2019-03-30 03:00:00 6.3 4 Este 13 Sudeste 0 954.7 -0.1 49
2019-03-30 02:00:00 8.6 9 Sudeste 18 Sudeste 0 954.7 0.2 44
2019-03-30 01:00:00 9.6 13 Sudeste 32 Sudeste 0 954.8 0.8 44
2019-03-30 00:00:00 10.7 16 Sudeste 22 Sudeste 0 954.8 1.1 43
2019-03-29 23:00:00 11.8 12 Sudeste 41 Sur 0 954.5 1.3 42
2019-03-29 22:00:00 12.3 18 Sudeste 26 Sudeste 0 954 1.1 40
2019-03-29 21:00:00 12.7 6 Sudeste 18 Sudeste 0 953.7 1.2 37
2019-03-29 20:00:00 14.5 16 Sudeste 32 Sur 0 953.2 0.5 33
2019-03-29 19:00:00 16.4 25 Sudeste 35 Sudeste 0 952.9 -0.4 30
2019-03-29 18:00:00 18.4 18 Sudeste 33 Sudeste 0 952.5 -1.3 21
2019-03-29 17:00:00 18.9 15 Sudeste 45 Sudeste 0 952.7 -2.2 20
2019-03-29 16:00:00 18.7 11 Sudeste 35 Sur 0 953.3 -2.4 20
2019-03-29 15:00:00 18.8 18 Sudeste 30 Este 0 953.8 -2.9 20
2019-03-29 14:00:00 17.8 11 Este 46 Sudeste 0 954.9 -2.4 20
2019-03-29 13:00:00 16.8 11 Sur 28 Sudeste 0 955.7 -2 25
2019-03-29 12:00:00 15.5 13 Sudeste 24 Sudeste 0 956.7 -1.1 26
2019-03-29 11:00:00 14.1 9 Sur 17 Sur 0 957.3 -0.5 30
2019-03-29 10:00:00 11 3 Nordeste 11 Norte 0 957.7 0.2 38
2019-03-29 09:00:00 6.3 8 Norte 11 Norte 0 957.8 0.5 49
2019-03-29 08:00:00 2 6 Norte 9 Norte 0 957.8 0.7 62
2019-03-29 07:00:00 1.7 5 Noroeste 15 Norte 0 957.5 0.3 60
2019-03-29 06:00:00 2.2 8 Noroeste 15 Noroeste 0 957.3 0.1 58
2019-03-29 05:00:00 3 7 Noroeste 13 Noroeste 0 957.1 0 55
2019-03-29 04:00:00 3.5 9 Noroeste 15 Noroeste 0 957.2 0.3 52
2019-03-29 03:00:00 4 9 Noroeste 11 Noroeste 0 957.2 0.7 51
2019-03-29 02:00:00 6.3 7 Norte 11 Este 0 957.1 1.2 42
2019-03-29 01:00:00 6.4 3 Sudeste 9 Sudeste 0 956.9 1.2 39
2019-03-29 00:00:00 6.8 3 Noroeste 8 Este 0 956.5 1.1 41
2019-03-28 23:00:00 8.4 5 Norte 9 Norte 0 955.9 0.9 36
2019-03-28 22:00:00 11.2 4 Nordeste 9 Sudeste 0 955.7 0.9 28
2019-03-28 21:00:00 12.1 0 Calma 8 Norte 0 955.4 0.6 25
2019-03-28 20:00:00 14.2 0 Calma 5 Norte 0 955 -0.1 21
2019-03-28 19:00:00 18.7 4 Norte 8 Norte 0 954.8 -1 16
2019-03-28 18:00:00 20 3 Sudeste 15 Sur 0 954.8 -1.7 15
2019-03-28 17:00:00 20 5 Sur 13 Norte 0 955.1 -2.2 15
2019-03-28 16:00:00 19.5 7 Sudoeste 15 Oeste 0 955.8 -2.3 15
2019-03-28 15:00:00 18.9 9 Sur 26 Sudoeste 0 956.5 -2.2 17
2019-03-28 14:00:00 18.3 8 Sudoeste 17 Sur 0 957.3 -1.8 17
2019-03-28 13:00:00 16.8 9 Sur 17 Sudeste 0 958.1 -1.2 17
2019-03-28 12:00:00 15.5 6 Sur 13 Sur 0 958.7 -0.8 21
2019-03-28 11:00:00 12.9 6 Norte 13 Oeste 0 959.1 -0.5 29
2019-03-28 10:00:00 9.8 5 Noroeste 13 Noroeste 0 959.3 0.1 35
2019-03-28 09:00:00 6.2 3 Noroeste 8 Noroeste 0 959.5 0.8 42
2019-03-28 08:00:00 2 5 Noroeste 9 Noroeste 0 959.6 1.2 54
2019-03-28 07:00:00 1.9 7 Norte 11 Norte 0 959.2 1.1 51
2019-03-28 06:00:00 2.9 4 Noroeste 9 Noroeste 0 958.7 0.8 47
2019-03-28 05:00:00 4.7 4 Norte 9 Nordeste 0 958.4 0.7 39
2019-03-28 04:00:00 4.8 3 Este 9 Norte 0 958.1 0.7 39
2019-03-28 03:00:00 5.9 8 Noroeste 11 Norte 0 957.9 1.1 38
2019-03-28 02:00:00 8.3 8 Norte 11 Este 0 957.7 1.9 32
2019-03-28 01:00:00 9.9 7 Este 17 Este 0 957.4 2.2 28
2019-03-28 00:00:00 10 6 Noroeste 17 Norte 0 956.8 2.3 28
2019-03-27 23:00:00 11.5 8 Norte 17 Norte 0 955.8 2.1 23
2019-03-27 22:00:00 11.4 8 Norte 9 Noroeste 0 955.2 2 26
2019-03-27 21:00:00 12 8 Noroeste 11 Noroeste 0 954.5 1.4 28
2019-03-27 20:00:00 14.3 4 Norte -- -- 0 953.7 0.3 22
2019-03-27 19:00:00 19.6 8 Sudoeste 13 Oeste 0 953.2 -0.8 16
2019-03-27 18:00:00 19.9 3 Sur 15 Sudeste 0 953.1 -1.5 16
2019-03-27 17:00:00 19.6 12 Sudeste 17 Sudeste 0 953.4 -1.9 17
2019-03-27 16:00:00 18.9 8 Sur 18 Sudoeste 0 954 -2 18
2019-03-27 15:00:00 18 6 Sur 13 Sur 0 954.6 -1.9 20
2019-03-27 14:00:00 17.1 8 Sur 21 Sudoeste 0 955.3 -1.6 22
2019-03-27 13:00:00 15.5 6 Oeste 15 Sudoeste 0 956 -0.9 26
2019-03-27 12:00:00 14.1 4 Oeste 15 Sudoeste 0 956.5 -0.4 29
2019-03-27 11:00:00 12.1 5 Oeste 13 Sudoeste 0 956.9 0.3 37
2019-03-27 10:00:00 9.4 7 Norte 13 Norte 0 956.9 0.9 33
2019-03-27 09:00:00 5 8 Noroeste 15 Norte 0 956.9 1.4 39
2019-03-27 08:00:00 1.6 12 Norte 15 Norte 0 956.6 1.5 48
2019-03-27 07:00:00 1.2 6 Noroeste 11 Noroeste 0 956 0.9 47
2019-03-27 06:00:00 2.3 6 Noroeste 9 Norte 0 955.5 0.5 43
2019-03-27 05:00:00 3.5 6 Norte 13 Norte 0 955.1 0.4 38
2019-03-27 04:00:00 4.7 4 Norte 11 Este 0 955.1 0.7 35
2019-03-27 03:00:00 6.3 5 Nordeste 13 Este 0 955 1.2 31
2019-03-27 02:00:00 8.1 5 Nordeste 21 Este 0 954.7 1.3 27
2019-03-27 01:00:00 8.2 8 Nordeste 18 Este 0 954.4 2.4 26
2019-03-27 00:00:00 9.7 3 Nordeste 13 Norte 0 953.8 2.4 22
2019-03-26 23:00:00 11.7 10 Norte 22 Nordeste 0 953.4 3.6 20
2019-03-26 22:00:00 14 13 Nordeste 28 Nordeste 0 952 2.8 17
2019-03-26 21:00:00 15.6 13 Nordeste 41 Norte 0 951.4 2.6 15
2019-03-26 20:00:00 17.1 21 Nordeste 39 Nordeste 0 949.8 1.2 16
2019-03-26 19:00:00 19.1 26 Norte 42 Norte 0 949.2 0.3 13
2019-03-26 18:00:00 21.2 24 Norte 41 Norte 0 948.8 -0.6 17
2019-03-26 17:00:00 22.3 18 Norte 37 Norte 0 948.6 -1.8 15
2019-03-26 16:00:00 22.5 12 Nordeste 26 Nordeste 0 948.9 -2.1 16
2019-03-26 15:00:00 21.6 12 Norte 24 Norte 0 949.4 -2.2 19
2019-03-26 14:00:00 20.2 14 Norte 24 Norte 0 950.4 -2 24
2019-03-26 13:00:00 18.8 13 Norte 26 Norte 0 951 -1.6 27
2019-03-26 12:00:00 16.5 11 Nordeste 26 Nordeste 0 951.6 -0.9 32
2019-03-26 11:00:00 13.3 17 Nordeste 28 Este 0 952.4 0 37
2019-03-26 10:00:00 11.3 19 Norte 30 Nordeste 0 952.6 0.5 40
2019-03-26 09:00:00 9.1 12 Norte 26 Norte 0 952.5 0.5 47
2019-03-26 08:00:00 6.4 13 Noroeste 22 Noroeste 0 952.4 0.7 55
2019-03-26 07:00:00 6.3 17 Norte 37 Norte 0 952.1 0.2 56
2019-03-26 06:00:00 5.9 13 Norte 35 Norte 0 952 -0.2 58
2019-03-26 05:00:00 6.5 15 Norte 30 Nordeste 0 951.7 -0.7 56
2019-03-26 04:00:00 7 15 Norte 33 Norte 0 951.9 -0.6 54
2019-03-26 03:00:00 7.4 21 Norte 37 Norte 0 952.2 0.1 53
2019-03-26 02:00:00 8 15 Nordeste 35 Norte 0 952.4 0.8 49
2019-03-26 01:00:00 9.1 18 Norte 35 Norte 0 952.5 1.6 41
2019-03-26 00:00:00 10.6 13 Norte 33 Nordeste 0 952.1 2 35
2019-03-25 23:00:00 11.9 18 Nordeste 39 Nordeste 0 951.6 2.3 32
2019-03-25 22:00:00 13.3 18 Nordeste 42 Nordeste 0 950.9 1.8 30
2019-03-25 21:00:00 15.8 20 Nordeste 39 Nordeste 0 950.1 1 20
2019-03-25 20:00:00 16.9 8 Nordeste 21 Nordeste 0 949.3 -0.1 21
2019-03-25 19:00:00 20 10 Nordeste 24 Nordeste 0 949.1 -0.8 17
2019-03-25 18:00:00 21.8 12 Nordeste 21 Nordeste 0 949.1 -1.5 16
2019-03-25 17:00:00 22.1 13 Nordeste 26 Este 0 949.4 -2.4 15
2019-03-25 16:00:00 22.2 12 Nordeste 26 Norte 0 949.9 -2.8 19
2019-03-25 15:00:00 22 10 Nordeste 24 Norte 0 950.6 -3 20
2019-03-25 14:00:00 21.6 8 Nordeste 18 Norte 0 951.8 -2.3 20
2019-03-25 13:00:00 20.6 10 Norte 21 Norte 0 952.7 -1.9 23
2019-03-25 12:00:00 19.3 13 Nordeste 24 Nordeste 0 953.6 -1.1 25
2019-03-25 11:00:00 17.2 13 Nordeste 28 Este 0 954.1 -0.7 32
2019-03-25 10:00:00 14.3 15 Nordeste 30 Norte 0 954.6 0.2 39
2019-03-25 09:00:00 9.3 10 Noroeste 13 Noroeste 0 954.7 0.3 49
2019-03-25 08:00:00 6.1 10 Norte 17 Norte 0 954.8 0.4 59
2019-03-25 07:00:00 6 10 Norte 17 Norte 0 954.4 -0.3 56
2019-03-25 06:00:00 6.2 11 Norte 13 Norte 0 954.4 -0.4 56
2019-03-25 05:00:00 6.8 9 Noroeste 11 Norte 0 954.4 -0.6 55
2019-03-25 04:00:00 6.8 8 Noroeste 9 Noroeste 0 954.7 -0.3 52
2019-03-25 03:00:00 7.6 5 Norte 11 Norte 0 954.8 0 50
2019-03-25 02:00:00 8.8 2 Noroeste 15 Norte 0 955 0.5 44
2019-03-25 01:00:00 9.8 8 Norte 17 Norte 0 955 1 43
2019-03-25 00:00:00 11 0 Calma 13 Este 0 954.8 1.5 38
2019-03-24 23:00:00 13.4 8 Este 11 Este 0 954.5 1.8 33
2019-03-24 22:00:00 14.7 5 Sudeste 21 Sur 0 954 1.6 30
2019-03-24 21:00:00 17.4 10 Sur 24 Sudeste 0 953.3 0.9 26
2019-03-24 20:00:00 17.7 4 Sudeste 17 Sudoeste 0 952.7 0.1 23
2019-03-24 19:00:00 21.1 4 Sur 22 Sur 0 952.4 -0.8 18
2019-03-24 18:00:00 22.1 12 Sudeste 26 Sudeste 0 952.4 -1.4 17
2019-03-24 17:00:00 22 13 Sudeste 26 Sudeste 0 952.6 -1.8 18
2019-03-24 16:00:00 22.1 8 Sudeste 22 Este 0 953.2 -2 19
2019-03-24 15:00:00 21.7 10 Este 30 Sudeste 0 953.8 -2 19
2019-03-24 14:00:00 21.5 14 Sudeste 37 Sudeste 0 954.4 -2.1 17
2019-03-24 13:00:00 20.4 10 Sudeste 24 Este 0 955.2 -1.7 25
2019-03-24 12:00:00 18.9 8 Norte 17 Este 0 955.8 -1 31
2019-03-24 11:00:00 16.1 6 Nordeste 11 Este 0 956.5 0 42
2019-03-24 10:00:00 12.2 5 Noroeste 15 Oeste 0 956.9 0.9 51
2019-03-24 09:00:00 8.4 6 Noroeste 9 Noroeste 0 956.8 0.9 65
2019-03-24 08:00:00 4.4 8 Norte 9 Norte 0 956.5 0.7 80
2019-03-24 07:00:00 4.5 5 Norte 11 Noroeste 0 956 0.3 76
2019-03-24 06:00:00 5.4 8 Noroeste 11 Noroeste 0 955.9 -0.1 73
2019-03-24 05:00:00 6.3 0 Calma 15 Norte 0 955.8 -0.4 69
2019-03-24 04:00:00 7.2 8 Norte 15 Norte 0 955.7 -0.7 65
2019-03-24 03:00:00 8.8 11 Noroeste 15 Norte 0 956 -0.4 60
2019-03-24 02:00:00 9.3 8 Norte 11 Noroeste 0 956.2 0 59
2019-03-24 01:00:00 10.2 8 Norte 9 Norte 0 956.4 0.5 54
2019-03-24 00:00:00 9.9 4 Nordeste 5 Norte 0 956.4 1.1 54
2019-03-23 23:00:00 11.9 4 Sudeste 18 Sudoeste 0 956.2 1.5 48
2019-03-23 22:00:00 13.4 6 Este 13 Este 0 955.9 1.4 43
2019-03-23 21:00:00 14.2 5 Sudeste 9 Sudeste 0 955.3 1.5 40
2019-03-23 20:00:00 17 9 Sudeste 22 Sudeste 0 954.7 0.8 34
2019-03-23 19:00:00 18 16 Sudeste 30 Sudeste 0 954.5 0.2 31
2019-03-23 18:00:00 19.7 12 Sudeste 24 Sudeste 0 953.8 -0.9 28
2019-03-23 17:00:00 20.3 10 Este 18 Nordeste 0 953.9 -1.7 27
2019-03-23 16:00:00 19.7 6 Nordeste 17 Este 0 954.3 -2.2 27
2019-03-23 15:00:00 20.6 9 Este 18 Sudeste 0 954.7 -2.5 25
2019-03-23 14:00:00 21 12 Este 28 Nordeste 0 955.6 -2.6 24
2019-03-23 13:00:00 20 12 Nordeste 22 Nordeste 0 956.5 -2.1 29
2019-03-23 12:00:00 18.9 10 Nordeste 21 Este 0 957.2 -1.4 31
2019-03-23 11:00:00 14.5 6 Noroeste 15 Sudoeste 0 958.2 -0.3 44
2019-03-23 10:00:00 10.7 5 Sudoeste 13 Sudoeste 0 958.6 0.3 51
2019-03-23 09:00:00 7.2 2 Norte 8 Noroeste 0 958.6 0.5 61
2019-03-23 08:00:00 3 5 Norte 11 Norte 0 958.5 0.3 74
2019-03-23 07:00:00 3.4 6 Norte 11 Norte 0 958.3 -0.2 70
2019-03-23 06:00:00 4.1 8 Noroeste 9 Norte 0 958.1 -0.6 67
2019-03-23 05:00:00 4.9 7 Norte 11 Norte 0 958.2 -0.7 63
2019-03-23 04:00:00 6 9 Noroeste 13 Norte 0 958.5 -0.1 59
2019-03-23 03:00:00 6.7 9 Norte 13 Norte 0 958.7 0 58
2019-03-23 02:00:00 8.1 8 Noroeste 11 Noroeste 0 958.9 0.5 56
2019-03-23 01:00:00 9.8 5 Norte 9 Norte 0 958.6 0.9 50
2019-03-23 00:00:00 11.1 2 Nordeste 9 Sur 0 958.7 2.1 45
2019-03-22 23:00:00 12.2 5 Sur 24 Sur 0 958.4 2.4 40
2019-03-22 22:00:00 13.7 11 Sudeste 26 Sur 0 957.7 1.9 37
2019-03-22 21:00:00 15.2 6 Sur 30 Sudeste 0 956.6 1.1 32
2019-03-22 20:00:00 16.6 8 Sudoeste 24 Sudoeste 0 956 0.3 29
2019-03-22 19:00:00 18.9 3 Sudoeste 15 Sur 0 955.8 -0.4 25
2019-03-22 18:00:00 19.4 4 Este 21 Norte 0 955.5 -1.3 23
2019-03-22 17:00:00 19.9 3 Sur 22 Sudeste 0 955.7 -2 23
2019-03-22 16:00:00 19.3 9 Este 24 Nordeste 0 956.2 -2.2 23
2019-03-22 15:00:00 18.5 9 Este 24 Este 0 956.8 -2.4 24
2019-03-22 14:00:00 17.1 7 Norte 48 Nordeste 0 957.7 -2 25
2019-03-22 13:00:00 15.8 3 Sudoeste 17 Nordeste 0 958.4 -1.6 28
2019-03-22 12:00:00 14.1 7 Norte 13 Norte 0 959.2 -0.5 34
2019-03-22 11:00:00 11.2 4 Nordeste 13 Este 0 959.7 -0.1 40
2019-03-22 10:00:00 7.1 4 Norte 8 Norte 0 960 0.5 49
2019-03-22 09:00:00 3.9 8 Norte 17 Noroeste 0 959.7 0.4 59
2019-03-22 08:00:00 0.4 6 Noroeste 13 Noroeste 0 959.8 0.7 70
2019-03-22 07:00:00 -0.1 8 Norte 11 Noroeste 0 959.5 0.4 70
2019-03-22 06:00:00 0.5 8 Norte 11 Norte 0 959.3 0.2 67
2019-03-22 05:00:00 1.1 7 Norte 9 Noroeste 0 959.1 0.4 65
2019-03-22 04:00:00 1.8 6 Noroeste 11 Norte 0 959.1 0.6 63
2019-03-22 03:00:00 3.5 9 Norte 13 Norte 0 959.1 0.6 57
2019-03-22 02:00:00 6.3 5 Sudeste 18 Sur 0 958.7 0.7 47
2019-03-22 01:00:00 6.3 7 Sudeste 9 Sudeste 0 958.5 1.3 46
2019-03-22 00:00:00 6.8 5 Este 17 Sudeste 0 958.5 1.7 44
2019-03-21 23:00:00 6.9 10 Norte 18 Sudeste 0 958 1.7 46
2019-03-21 22:00:00 10.9 7 Sudoeste 21 Sudoeste 0 957.2 1.2 35
2019-03-21 21:00:00 8.8 0 Calma 8 Noroeste 0 956.8 0.9 38
2019-03-21 20:00:00 11.7 5 Noroeste 11 Noroeste 0 956.3 0.2 32
2019-03-21 19:00:00 15.2 8 Noroeste 15 Norte 0 956 -0.5 27
2019-03-21 18:00:00 15.8 5 Nordeste 21 Oeste 0 955.9 -1.2 25
2019-03-21 17:00:00 16.3 5 Nordeste 24 Norte 0 956.1 -1.9 25
2019-03-21 16:00:00 16.1 9 Oeste 18 Sudoeste 0 956.5 -2.4 26
2019-03-21 15:00:00 15.8 8 Sur 24 Sudoeste 0 957.1 -2.3 24
2019-03-21 14:00:00 14.8 7 Sudoeste 22 Sudoeste 0 958 -1.7 32
2019-03-21 13:00:00 13.5 5 Sur 13 Sudoeste 0 958.9 -1 36
2019-03-21 12:00:00 12.4 4 Sur 18 Sudoeste 0 959.4 -0.8 36
2019-03-21 11:00:00 10.6 4 Sur 15 Oeste 0 959.7 -0.5 39
2019-03-21 10:00:00 7.5 3 Noroeste 11 Sudoeste 0 959.9 0.1 47
2019-03-21 09:00:00 4.7 4 Norte 8 Nordeste 0 960.2 0.9 55
2019-03-21 08:00:00 0.8 5 Norte 8 Norte 0 960.2 1.2 68
2019-03-21 07:00:00 0.5 4 Norte -- -- 0 959.8 0.7 67
2019-03-21 06:00:00 1.5 2 Norte 8 Norte 0 959.3 -0.1 61
2019-03-21 05:00:00 2.2 6 Norte 13 Norte 0 959 -0.2 59
2019-03-21 04:00:00 2.9 5 Norte 8 Noroeste 0 959.1 0 55
2019-03-21 03:00:00 3.7 4 Noroeste 8 Norte 0 959.4 0.7 50
2019-03-21 02:00:00 5.6 7 Norte 18 Norte 0 959.2 0.9 44
2019-03-21 01:00:00 6.8 7 Norte 17 Norte 0 959.1 1.5 39
2019-03-21 00:00:00 8.2 9 Noroeste 24 Nordeste 0 958.7 1.4 35